Time;durP1;ratioP1;P1;durP2;ratioP2;P2;SDS_P1;SDS_P2;PMS_P1;PMS_P2;Temp;Humidity;BMP_temperature;BMP_pressure;BME280_temperature;BME280_humidity;BME280_pressure;Samples;Min_cycle;Max_cycle;Signal;HPM_P1;HPM_P2
2023/10/29 00:03:57;;;;;;;2.25;0.70;;;;;;;17.38;86.55;98485.13;8261804;28;20439;-57
2023/10/29 00:07:57;;;;;;;2.08;0.60;;;;;;;17.25;87.04;98478.00;8270948;28;20091;-57
2023/10/29 00:11:58;;;;;;;1.73;0.50;;;;;;;17.41;85.72;98460.09;8271154;28;20776;-57
2023/10/29 00:15:58;;;;;;;1.50;0.77;;;;;;;17.46;85.23;98449.34;8272229;28;20369;-57
2023/10/29 00:19:59;;;;;;;2.60;0.80;;;;;;;17.39;85.46;98460.31;8272297;28;20034;-57
2023/10/29 00:24:00;;;;;;;3.40;0.80;;;;;;;17.50;84.46;98481.41;8270831;28;20187;-61
2023/10/29 00:28:00;;;;;;;5.32;0.88;;;;;;;17.54;83.97;98459.94;8272266;28;20061;-57
2023/10/29 00:32:01;;;;;;;3.78;0.77;;;;;;;17.59;83.60;98457.31;8271813;28;20038;-57
2023/10/29 00:36:02;;;;;;;2.85;0.57;;;;;;;17.64;83.29;98454.72;8287030;28;20060;-58
2023/10/29 00:40:04;;;;;;;1.83;0.75;;;;;;;17.74;82.98;98443.19;8327502;28;20037;-57
2023/10/29 00:44:05;;;;;;;2.05;0.52;;;;;;;17.72;83.01;98445.34;8327114;28;20033;-58
2023/10/29 00:48:06;;;;;;;2.67;0.70;;;;;;;17.50;84.12;98447.78;8327269;28;20052;-58
2023/10/29 00:52:07;;;;;;;1.70;0.85;;;;;;;17.44;83.70;98427.72;8286736;28;20052;-57
2023/10/29 00:56:08;;;;;;;1.48;0.45;;;;;;;17.50;83.54;98404.91;8271936;28;20297;-56
2023/10/29 01:00:10;;;;;;;5.15;0.75;;;;;;;17.56;82.58;98411.34;8271008;28;20048;-58
2023/10/29 01:04:10;;;;;;;2.47;0.60;;;;;;;17.57;82.15;98421.22;8271159;28;20064;-58
2023/10/29 01:08:12;;;;;;;4.15;0.75;;;;;;;17.68;81.27;98416.81;8278560;28;20538;-56
2023/10/29 01:12:15;;;;;;;1.83;0.52;;;;;;;17.73;81.22;98425.97;8326278;28;20037;-56
2023/10/29 01:16:16;;;;;;;3.67;0.90;;;;;;;17.74;81.18;98433.09;8326428;28;20041;-57
2023/10/29 01:20:17;;;;;;;3.08;0.77;;;;;;;17.87;80.71;98427.38;8324890;28;20276;-56
2023/10/29 01:24:18;;;;;;;3.15;0.95;;;;;;;17.87;80.48;98400.03;8260443;28;20250;-58
2023/10/29 01:28:18;;;;;;;3.38;0.50;;;;;;;17.68;81.18;98419.56;8220850;28;20037;-58
2023/10/29 01:32:19;;;;;;;1.80;0.50;;;;;;;17.63;82.11;98403.88;8224213;28;20363;-58
2023/10/29 01:36:20;;;;;;;2.38;0.47;;;;;;;17.71;81.56;98397.22;8223398;28;20123;-58
2023/10/29 01:40:20;;;;;;;3.10;0.68;;;;;;;17.67;81.56;98399.59;8224936;28;20316;-58
2023/10/29 01:44:21;;;;;;;1.50;0.52;;;;;;;17.77;81.28;98388.88;8227518;28;20245;-58
2023/10/29 01:48:23;;;;;;;2.55;0.80;;;;;;;17.80;81.23;98382.94;8269439;28;20051;-58
2023/10/29 01:52:24;;;;;;;3.15;0.80;;;;;;;17.83;80.93;98377.00;8268674;28;20052;-58
2023/10/29 01:56:25;;;;;;;2.67;0.65;;;;;;;17.63;82.63;98385.56;8296432;28;20042;-58
2023/10/29 02:00:26;;;;;;;2.58;0.60;;;;;;;17.06;87.35;98385.44;8269638;28;20040;-59
2023/10/29 02:04:27;;;;;;;2.17;0.73;;;;;;;16.75;89.57;98356.53;8269995;28;20096;-59
2023/10/29 02:08:27;;;;;;;4.80;0.80;;;;;;;16.65;90.74;98349.97;8269716;28;20060;-59
2023/10/29 02:12:27;;;;;;;2.25;0.80;;;;;;;16.76;90.28;98340.97;8268948;28;20285;-59
2023/10/29 02:16:28;;;;;;;1.95;0.77;;;;;;;16.97;89.90;98348.63;8268918;28;20688;-59
2023/10/29 02:20:28;;;;;;;1.85;1.08;;;;;;;17.05;89.46;98351.03;8268581;28;20037;-58
2023/10/29 02:24:29;;;;;;;1.98;0.45;;;;;;;17.16;88.63;98342.03;8290381;28;20132;-57
2023/10/29 02:28:29;;;;;;;1.42;0.50;;;;;;;17.19;87.59;98357.94;8324552;28;20041;-57
2023/10/29 02:32:30;;;;;;;2.90;0.80;;;;;;;17.32;87.44;98346.78;8324264;28;20095;-58
2023/10/29 02:36:30;;;;;;;1.65;0.40;;;;;;;17.27;87.25;98338.47;8323018;28;20040;-57
2023/10/29 02:40:31;;;;;;;1.10;0.55;;;;;;;17.34;86.78;98333.72;8324525;28;20553;-59
2023/10/29 02:44:31;;;;;;;1.92;0.50;;;;;;;17.53;85.60;98338.88;8324438;28;20415;-58
2023/10/29 02:48:32;;;;;;;1.40;0.55;;;;;;;17.53;85.56;98316.19;8324291;28;20384;-58
2023/10/29 02:52:32;;;;;;;0.80;0.30;;;;;;;17.58;84.93;98313.56;8323661;28;20038;-58
2023/10/29 02:56:35;;;;;;;2.28;0.70;;;;;;;17.69;84.23;98310.00;8309108;28;20207;-57
2023/10/29 03:00:36;;;;;;;0.22;0.22;;;;;;;17.73;84.14;98311.19;8267934;28;20355;-56
2023/10/29 03:04:36;;;;;;;0.85;0.30;;;;;;;17.73;83.87;98322.13;8267892;28;20326;-57
2023/10/29 03:08:37;;;;;;;0.95;0.43;;;;;;;17.59;84.50;98293.38;8273513;28;20566;-58
2023/10/29 03:12:38;;;;;;;1.08;0.47;;;;;;;17.58;85.11;98287.09;8270587;28;20359;-58
2023/10/29 03:16:38;;;;;;;1.30;0.30;;;;;;;17.55;85.46;98303.97;8274047;28;20318;-57
2023/10/29 03:20:40;;;;;;;1.10;0.22;;;;;;;17.65;84.66;98325.19;8273709;28;20057;-58
2023/10/29 03:24:40;;;;;;;1.88;0.52;;;;;;;17.65;84.77;98322.47;8276388;28;20495;-57
2023/10/29 03:28:42;;;;;;;0.80;0.38;;;;;;;17.73;84.77;98316.66;8326570;28;20404;-59
2023/10/29 03:32:42;;;;;;;1.77;0.30;;;;;;;17.89;83.33;98310.44;8329243;28;20041;-59
2023/10/29 03:36:43;;;;;;;2.60;0.30;;;;;;;17.90;83.01;98295.69;8329718;28;20038;-59
2023/10/29 03:40:44;;;;;;;2.45;0.45;;;;;;;17.99;82.91;98288.75;8329904;28;20037;-57
2023/10/29 03:44:44;;;;;;;2.38;0.50;;;;;;;17.82;83.66;98296.06;8329816;28;20080;-57
2023/10/29 03:48:45;;;;;;;0.98;0.30;;;;;;;17.79;83.77;98321.16;8327966;28;20492;-57
2023/10/29 03:52:46;;;;;;;9.00;1.00;;;;;;;17.73;83.95;98333.03;8328662;28;20045;-58
2023/10/29 03:56:46;;;;;;;1.02;0.40;;;;;;;17.73;83.77;98305.72;8329399;28;20410;-58
2023/10/29 04:00:51;;;;;;;1.60;0.50;;;;;;;17.69;83.69;98282.69;8328844;28;20037;-57
2023/10/29 04:04:52;;;;;;;0.70;0.20;;;;;;;17.68;83.82;98275.53;8329240;28;20038;-56
2023/10/29 04:08:53;;;;;;;0.63;0.32;;;;;;;17.70;82.99;98284.34;8328961;28;20067;-57
2023/10/29 04:12:53;;;;;;;1.15;0.40;;;;;;;17.70;81.78;98300.72;8328584;28;20052;-57
2023/10/29 04:16:54;;;;;;;1.27;0.40;;;;;;;17.65;81.75;98303.34;8283973;28;20297;-59
2023/10/29 04:20:54;;;;;;;1.10;0.40;;;;;;;17.88;80.39;98307.94;8272175;28;20034;-59
2023/10/29 04:24:55;;;;;;;1.55;0.40;;;;;;;17.90;79.96;98306.63;8273365;28;20199;-58
2023/10/29 04:28:55;;;;;;;1.08;0.30;;;;;;;17.97;79.16;98296.41;8229102;28;20741;-59
2023/10/29 04:32:56;;;;;;;2.35;0.43;;;;;;;17.88;80.13;98325.19;8228382;28;20033;-59
2023/10/29 04:36:56;;;;;;;1.27;0.30;;;;;;;17.77;79.97;98330.66;8227101;28;20375;-58
2023/10/29 04:40:57;;;;;;;0.75;0.32;;;;;;;17.74;80.30;98344.78;8228149;28;20489;-57
2023/10/29 04:44:57;;;;;;;1.45;0.50;;;;;;;17.66;80.36;98337.81;8257300;28;20099;-58
2023/10/29 04:48:58;;;;;;;1.90;0.50;;;;;;;17.60;80.85;98339.56;8271171;28;20545;-58
2023/10/29 04:52:58;;;;;;;1.40;0.65;;;;;;;17.67;79.96;98334.00;8270928;28;20816;-58
2023/10/29 04:56:59;;;;;;;2.72;0.50;;;;;;;17.77;79.45;98333.38;8325748;28;20034;-59
2023/10/29 05:00:59;;;;;;;1.85;0.40;;;;;;;17.84;78.50;98334.91;8311902;28;20499;-58
2023/10/29 05:05:00;;;;;;;2.40;0.45;;;;;;;17.90;78.71;98344.06;8268719;28;20061;-59
2023/10/29 05:09:00;;;;;;;1.40;0.43;;;;;;;17.86;78.58;98346.44;8270484;28;20037;-58
2023/10/29 05:13:01;;;;;;;2.17;0.40;;;;;;;17.87;78.83;98355.50;8269565;28;20338;-59
2023/10/29 05:17:02;;;;;;;2.38;0.40;;;;;;;17.77;79.52;98353.34;8270301;28;20388;-58
2023/10/29 05:21:03;;;;;;;6.78;0.55;;;;;;;17.74;79.47;98334.69;8268018;28;20041;-58
2023/10/29 05:25:06;;;;;;;1.77;0.32;;;;;;;17.57;80.15;98333.78;8264490;28;20060;-58
2023/10/29 05:29:07;;;;;;;3.13;0.57;;;;;;;17.61;80.28;98334.94;8273028;28;20456;-58
2023/10/29 05:33:07;;;;;;;1.88;0.40;;;;;;;17.62;79.88;98355.72;8326098;28;20041;-59
2023/10/29 05:37:08;;;;;;;0.63;0.30;;;;;;;17.74;78.58;98351.09;8326269;28;20074;-59
2023/10/29 05:41:08;;;;;;;2.47;0.30;;;;;;;17.72;78.97;98347.78;8317007;28;20037;-60
2023/10/29 05:45:09;;;;;;;4.10;0.40;;;;;;;17.57;80.13;98339.25;8319770;28;20297;-59
2023/10/29 05:49:09;;;;;;;3.08;0.60;;;;;;;17.57;80.49;98356.44;8269063;28;20029;-58
2023/10/29 05:53:10;;;;;;;2.55;0.40;;;;;;;17.50;81.04;98369.41;8269104;28;20404;-59
2023/10/29 05:57:11;;;;;;;2.17;0.30;;;;;;;17.35;81.88;98368.16;8269763;28;20166;-58
2023/10/29 06:01:11;;;;;;;3.92;0.60;;;;;;;17.21;82.87;98377.66;8268190;28;20547;-59
2023/10/29 06:05:12;;;;;;;1.65;0.47;;;;;;;17.15;83.12;98384.91;8268846;28;20368;-59
2023/10/29 06:09:12;;;;;;;2.35;0.50;;;;;;;17.19;82.33;98385.25;8268726;28;20592;-58
2023/10/29 06:13:13;;;;;;;1.58;0.40;;;;;;;17.13;82.42;98388.91;8272464;28;20652;-57
2023/10/29 06:17:14;;;;;;;0.82;0.30;;;;;;;17.15;82.03;98400.44;8325553;28;20037;-57
2023/10/29 06:21:14;;;;;;;2.97;0.40;;;;;;;17.11;82.51;98394.59;8325146;28;20450;-57
2023/10/29 06:25:16;;;;;;;2.75;0.40;;;;;;;17.09;82.11;98407.69;8325210;28;20061;-57
2023/10/29 06:29:16;;;;;;;2.80;0.52;;;;;;;17.01;82.21;98410.72;8324895;28;20053;-58
2023/10/29 06:33:17;;;;;;;2.70;0.68;;;;;;;16.97;82.20;98414.16;8281687;28;20177;-59
2023/10/29 06:37:18;;;;;;;3.25;0.60;;;;;;;17.00;81.30;98424.59;8265173;28;20552;-58
2023/10/29 06:41:19;;;;;;;5.68;0.90;;;;;;;17.03;80.91;98427.72;8265453;28;20037;-57
2023/10/29 06:45:20;;;;;;;2.80;0.60;;;;;;;17.12;80.02;98428.22;8282660;28;20041;-59
2023/10/29 06:49:20;;;;;;;5.07;0.60;;;;;;;17.13;80.18;98418.94;8324437;28;20045;-59
2023/10/29 06:53:21;;;;;;;4.28;0.40;;;;;;;17.14;79.69;98423.34;8270567;28;20037;-58
2023/10/29 06:57:21;;;;;;;2.28;0.43;;;;;;;17.19;79.08;98434.38;8268608;28;20478;-59
2023/10/29 07:01:21;;;;;;;2.28;0.60;;;;;;;17.08;79.38;98443.41;8268209;28;20307;-58
2023/10/29 07:05:22;;;;;;;2.30;0.52;;;;;;;17.02;79.21;98436.13;8268434;28;20052;-58
2023/10/29 07:09:23;;;;;;;2.80;0.50;;;;;;;17.05;79.44;98454.78;8265811;28;20300;-58
2023/10/29 07:13:24;;;;;;;2.95;0.77;;;;;;;16.98;80.02;98464.94;8268753;28;20128;-59
2023/10/29 07:17:25;;;;;;;4.97;0.50;;;;;;;16.88;80.45;98472.84;8293820;28;20431;-58
2023/10/29 07:21:26;;;;;;;4.32;0.75;;;;;;;16.98;79.82;98459.47;8317048;28;20063;-58
2023/10/29 07:25:26;;;;;;;4.00;0.60;;;;;;;16.97;80.14;98468.75;8323016;28;20072;-57
2023/10/29 07:29:27;;;;;;;2.65;0.68;;;;;;;16.89;80.31;98461.72;8322386;28;20042;-58
2023/10/29 07:33:27;;;;;;;3.85;0.40;;;;;;;16.93;80.23;98471.09;8319065;28;20045;-57
2023/10/29 07:37:28;;;;;;;3.17;0.40;;;;;;;17.00;79.83;98474.59;8322431;28;20400;-58
2023/10/29 07:41:28;;;;;;;6.28;0.40;;;;;;;17.01;79.69;98480.84;8322586;28;20037;-58
2023/10/29 07:45:29;;;;;;;3.25;0.47;;;;;;;16.95;79.73;98515.38;8322439;28;20069;-57
2023/10/29 07:49:31;;;;;;;5.70;0.82;;;;;;;17.02;78.78;98512.56;8321321;28;20261;-57
2023/10/29 07:53:32;;;;;;;2.10;0.50;;;;;;;17.23;78.25;98512.88;8319115;28;20038;-57
2023/10/29 07:57:33;;;;;;;2.42;0.30;;;;;;;17.49;76.92;98526.22;8327783;28;20060;-57
2023/10/29 08:01:33;;;;;;;1.70;0.57;;;;;;;17.67;76.51;98516.25;8327469;28;20042;-57
2023/10/29 08:05:34;;;;;;;4.68;0.93;;;;;;;17.70;76.77;98538.50;8335646;28;20521;-58
2023/10/29 08:09:34;;;;;;;1.63;0.50;;;;;;;17.58;77.73;98527.53;8327173;28;20403;-57
2023/10/29 08:13:35;;;;;;;3.97;0.45;;;;;;;17.50;78.45;98535.22;8328040;28;20065;-57
2023/10/29 08:17:35;;;;;;;1.65;0.50;;;;;;;17.48;79.25;98553.75;8320261;28;20504;-56
2023/10/29 08:21:36;;;;;;;2.40;0.50;;;;;;;17.53;79.41;98559.34;8321262;28;20499;-57
2023/10/29 08:25:37;;;;;;;3.33;0.30;;;;;;;17.54;79.83;98561.03;8327633;28;20052;-56
2023/10/29 08:29:39;;;;;;;2.38;0.40;;;;;;;17.54;79.98;98541.91;8326652;28;20041;-57
2023/10/29 08:33:40;;;;;;;3.67;0.32;;;;;;;17.67;79.56;98541.69;8327047;28;20087;-58
2023/10/29 08:37:40;;;;;;;0.93;0.25;;;;;;;17.58;79.24;98562.22;8322364;28;20053;-57
2023/10/29 08:41:41;;;;;;;3.17;0.45;;;;;;;17.57;79.00;98571.50;8326391;28;20049;-58
2023/10/29 08:45:41;;;;;;;5.70;0.45;;;;;;;17.58;78.32;98570.41;8326296;28;20041;-60
2023/10/29 08:49:42;;;;;;;2.05;0.47;;;;;;;17.62;77.61;98570.81;8325675;28;20087;-61
2023/10/29 08:53:43;;;;;;;1.30;0.35;;;;;;;17.55;77.78;98576.34;8326590;28;20080;-60
2023/10/29 08:57:43;;;;;;;2.25;0.32;;;;;;;17.56;77.85;98583.47;8326461;28;20085;-59
2023/10/29 09:01:44;;;;;;;1.10;0.38;;;;;;;17.60;77.06;98581.97;8322694;28;20164;-60
2023/10/29 09:05:46;;;;;;;1.25;0.35;;;;;;;17.57;78.10;98605.09;8320040;28;20137;-61
2023/10/29 09:09:48;;;;;;;1.95;0.35;;;;;;;17.60;75.98;98601.09;8318248;28;20384;-58
2023/10/29 09:13:48;;;;;;;1.23;0.30;;;;;;;17.65;76.15;98620.34;8324357;28;20059;-59
2023/10/29 09:17:49;;;;;;;3.58;0.50;;;;;;;17.80;76.36;98606.25;8322969;28;20046;-59
2023/10/29 09:21:51;;;;;;;3.08;0.50;;;;;;;18.03;74.68;98623.56;8320131;28;20128;-59
2023/10/29 09:25:51;;;;;;;1.30;0.43;;;;;;;17.88;75.27;98622.31;8322727;28;20045;-60
2023/10/29 09:29:52;;;;;;;5.22;0.50;;;;;;;17.80;75.43;98618.03;8323242;28;20454;-60
2023/10/29 09:33:53;;;;;;;2.42;0.50;;;;;;;17.74;75.53;98607.16;8318251;28;20052;-60
2023/10/29 09:37:53;;;;;;;3.28;0.38;;;;;;;17.57;76.70;98601.56;8318542;28;20056;-61
2023/10/29 09:41:54;;;;;;;2.35;0.40;;;;;;;17.54;76.60;98585.63;8320882;28;20045;-61
2023/10/29 09:46:04;;;;;;;2.03;0.30;;;;;;;17.61;77.09;98630.06;8305110;28;20045;-60
2023/10/29 09:50:06;;;;;;;3.60;0.47;;;;;;;17.76;75.92;98610.50;8309409;28;20134;-60
2023/10/29 09:54:07;;;;;;;3.53;0.73;;;;;;;17.85;75.65;98620.06;8310798;28;20052;-58
2023/10/29 09:58:09;;;;;;;2.17;0.45;;;;;;;18.37;73.79;98621.97;8315769;28;20121;-59
2023/10/29 10:02:10;;;;;;;3.13;0.60;;;;;;;18.03;74.14;98626.31;8313543;28;20120;-58
2023/10/29 10:06:13;;;;;;;4.43;1.08;;;;;;;17.83;74.76;98622.19;8321284;28;20033;-58
2023/10/29 10:10:14;;;;;;;2.83;0.50;;;;;;;17.78;74.65;98614.66;8319831;28;20127;-58
2023/10/29 10:14:30;;;;;;;2.20;0.70;;;;;;;18.11;73.82;98603.25;8313672;28;20634;-58
2023/10/29 10:18:48;;;;;;;4.22;0.60;;;;;;;18.62;71.37;98596.06;8319636;28;20460;-58
2023/10/29 10:23:06;;;;;;;5.63;0.65;;;;;;;18.73;71.58;98592.47;8311439;28;20060;-60
2023/10/29 10:27:07;;;;;;;1.40;0.40;;;;;;;18.78;71.24;98619.97;8305841;28;20109;-60
2023/10/29 10:31:14;;;;;;;5.15;0.60;;;;;;;18.48;72.80;98602.81;8301442;28;20048;-58
2023/10/29 10:35:14;;;;;;;1.98;0.50;;;;;;;18.76;73.47;98586.50;8316700;28;20042;-59
2023/10/29 10:39:23;;;;;;;1.63;0.30;;;;;;;18.71;72.76;98594.63;8297457;28;20057;-58
2023/10/29 10:43:24;;;;;;;4.07;0.70;;;;;;;18.40;74.43;98621.50;8318729;28;20048;-59
2023/10/29 10:47:26;;;;;;;1.92;0.43;;;;;;;18.28;75.36;98598.75;8317533;28;20125;-59
2023/10/29 10:51:30;;;;;;;1.52;0.28;;;;;;;18.29;75.61;98590.28;8309643;28;20064;-59
2023/10/29 10:55:31;;;;;;;3.27;0.40;;;;;;;18.21;76.96;98609.78;8316393;28;20426;-58
2023/10/29 10:59:35;;;;;;;1.67;0.60;;;;;;;18.23;77.28;98612.28;8316799;28;20483;-57
2023/10/29 11:03:35;;;;;;;2.95;0.43;;;;;;;18.52;75.88;98590.34;8316127;28;20565;-58
2023/10/29 11:07:37;;;;;;;2.38;0.30;;;;;;;18.61;75.20;98593.56;8316375;28;20377;-57
2023/10/29 11:11:48;;;;;;;1.23;0.15;;;;;;;18.56;74.77;98587.94;8315974;28;20037;-57
2023/10/29 11:15:49;;;;;;;1.50;0.20;;;;;;;18.32;75.76;98587.09;8314171;28;20547;-57
2023/10/29 11:19:49;;;;;;;0.77;0.30;;;;;;;18.31;77.04;98615.53;8316015;28;20049;-57
2023/10/29 11:24:18;;;;;;;0.68;0.30;;;;;;;18.21;78.00;98609.78;8309752;28;20053;-58
2023/10/29 11:37:39;;;;;;;0.65;0.10;;;;;;;19.28;76.79;98596.44;8406538;27;20397;-56
2023/10/29 11:41:40;;;;;;;2.05;0.30;;;;;;;20.03;74.89;98593.50;8396869;28;20592;-57
2023/10/29 11:45:50;;;;;;;2.50;0.20;;;;;;;20.20;73.33;98573.25;8401690;28;20397;-58
2023/10/29 11:54:06;;;;;;;0.40;0.20;;;;;;;19.95;74.21;98599.38;8322880;27;20389;-56
2023/10/29 11:58:07;;;;;;;1.75;0.20;;;;;;;19.76;74.10;98603.41;8324719;28;20049;-57
2023/10/29 12:02:08;;;;;;;1.90;0.30;;;;;;;19.32;75.29;98603.09;8325720;28;20076;-56
2023/10/29 12:06:08;;;;;;;1.45;0.20;;;;;;;18.85;76.54;98609.72;8322894;28;20040;-57
2023/10/29 12:10:10;;;;;;;1.35;0.30;;;;;;;18.77;78.50;98599.16;8328613;28;20041;-56
2023/10/29 12:14:11;;;;;;;2.78;0.20;;;;;;;18.67;77.59;98566.03;8324771;28;20092;-57
2023/10/29 12:18:20;;;;;;;1.10;0.30;;;;;;;18.81;77.85;98545.56;8308325;28;20060;-57
2023/10/29 12:22:23;;;;;;;1.35;0.20;;;;;;;18.82;77.17;98525.31;8312497;28;20093;-56
2023/10/29 12:26:31;;;;;;;0.55;0.30;;;;;;;18.80;77.74;98537.59;8318178;28;20326;-58
2023/10/29 12:30:49;;;;;;;1.77;0.20;;;;;;;18.72;78.60;98560.69;8299658;28;20068;-56
2023/10/29 12:34:52;;;;;;;1.10;0.40;;;;;;;18.77;78.54;98566.28;8304387;28;20188;-57
2023/10/29 12:38:53;;;;;;;0.47;0.22;;;;;;;18.61;78.44;98588.91;8317061;28;20410;-57
2023/10/29 12:42:54;;;;;;;0.40;0.10;;;;;;;18.42;79.04;98606.50;8324861;28;20045;-57
2023/10/29 12:46:54;;;;;;;0.85;0.20;;;;;;;18.30;79.44;98616.56;8315585;28;20489;-57
2023/10/29 12:50:55;;;;;;;1.50;0.20;;;;;;;18.20;80.28;98621.00;8309976;28;20045;-57
2023/10/29 12:54:57;;;;;;;4.35;0.13;;;;;;;18.08;81.17;98588.13;8313514;28;20375;-58
2023/10/29 12:58:58;;;;;;;0.30;0.10;;;;;;;17.86;83.94;98529.59;8303521;28;20033;-58
2023/10/29 13:02:58;;;;;;;0.50;0.20;;;;;;;17.90;87.66;98508.09;8303603;28;20038;-58
2023/10/29 13:07:07;;;;;;;4.35;0.30;;;;;;;17.80;90.37;98503.22;8266746;28;20048;-58
2023/10/29 13:11:10;;;;;;;0.57;0.10;;;;;;;17.82;89.81;98490.16;8297407;28;20069;-58
2023/10/29 13:15:12;;;;;;;1.77;0.10;;;;;;;17.76;89.02;98469.22;8271092;28;20041;-59
2023/10/29 13:19:12;;;;;;;0.82;0.13;;;;;;;17.82;86.03;98468.28;8265164;28;20061;-58
2023/10/29 13:23:13;;;;;;;0.43;0.20;;;;;;;18.14;84.48;98455.91;8277226;28;20589;-59
2023/10/29 13:27:13;;;;;;;0.73;0.30;;;;;;;18.20;84.34;98460.41;8266673;28;20133;-60
2023/10/29 13:31:14;;;;;;;0.30;0.20;;;;;;;18.21;83.95;98414.75;8291401;28;20042;-60
2023/10/29 13:35:16;;;;;;;0.57;0.20;;;;;;;18.23;83.94;98405.22;8296216;28;20360;-60
2023/10/29 13:39:17;;;;;;;0.28;0.20;;;;;;;18.43;82.37;98411.19;8283503;28;20068;-59
2023/10/29 13:43:18;;;;;;;0.47;0.45;;;;;;;18.54;81.02;98431.38;8290452;28;20073;-57
2023/10/29 13:47:19;;;;;;;0.50;0.13;;;;;;;18.62;80.89;98433.72;8302023;28;20164;-58
2023/10/29 13:51:20;;;;;;;0.85;0.50;;;;;;;18.53;80.49;98443.38;8303579;28;20056;-59
2023/10/29 13:55:23;;;;;;;1.15;0.75;;;;;;;18.53;80.94;98449.69;8299406;28;20507;-57
2023/10/29 13:59:23;;;;;;;1.73;0.28;;;;;;;18.46;81.05;98459.97;8298039;28;20637;-57
2023/10/29 14:03:24;;;;;;;0.40;0.20;;;;;;;18.65;80.19;98475.13;8296077;28;20056;-60
2023/10/29 14:07:26;;;;;;;1.08;0.20;;;;;;;19.06;78.66;98457.63;8298704;28;20044;-60
2023/10/29 14:11:27;;;;;;;0.35;0.20;;;;;;;19.19;77.35;98449.91;8292047;28;20162;-61
2023/10/29 14:15:27;;;;;;;0.65;0.35;;;;;;;19.15;74.56;98465.19;8284365;28;20044;-58
2023/10/29 14:19:27;;;;;;;0.20;0.20;;;;;;;19.14;74.83;98452.56;8290494;28;20041;-58
2023/10/29 14:23:28;;;;;;;1.52;0.40;;;;;;;19.11;73.94;98450.31;8292322;28;20297;-58
2023/10/29 14:27:29;;;;;;;0.73;0.30;;;;;;;19.13;74.22;98467.31;8298228;28;20034;-59
2023/10/29 14:31:29;;;;;;;0.30;0.20;;;;;;;18.95;73.65;98437.44;8306440;28;20053;-57
2023/10/29 14:35:30;;;;;;;0.93;0.10;;;;;;;18.73;74.87;98466.53;8284603;28;20408;-57
2023/10/29 14:39:30;;;;;;;1.40;0.15;;;;;;;18.65;75.54;98455.13;8312704;28;20495;-58
2023/10/29 14:43:31;;;;;;;0.25;0.10;;;;;;;18.81;74.10;98474.38;8288333;28;20476;-57
2023/10/29 14:47:31;;;;;;;1.77;0.10;;;;;;;18.88;73.22;98479.72;8288088;28;20147;-59
2023/10/29 14:51:32;;;;;;;0.28;0.10;;;;;;;18.73;72.83;98487.63;8288427;28;20045;-58
2023/10/29 14:55:32;;;;;;;2.35;0.93;;;;;;;18.57;72.84;98472.75;8296198;28;20200;-57
2023/10/29 14:59:34;;;;;;;18.27;8.15;;;;;;;18.48;73.88;98485.16;8296284;28;20073;-58
2023/10/29 15:03:34;;;;;;;3.15;1.70;;;;;;;18.37;74.07;98486.03;8299694;28;20041;-60
2023/10/29 15:07:35;;;;;;;5.15;2.72;;;;;;;18.47;73.44;98466.25;8293176;28;20461;-58
2023/10/29 15:11:35;;;;;;;8.20;3.40;;;;;;;18.55;73.66;98463.16;8293372;28;20586;-60
2023/10/29 15:15:36;;;;;;;4.25;2.03;;;;;;;18.53;73.25;98466.13;8293132;28;20047;-60
2023/10/29 15:19:37;;;;;;;2.20;0.70;;;;;;;18.37;73.13;98516.13;8288374;28;20046;-60
2023/10/29 15:23:37;;;;;;;1.83;1.08;;;;;;;18.19;74.14;98520.84;8290809;28;20042;-58
2023/10/29 15:27:38;;;;;;;0.90;0.55;;;;;;;18.14;73.92;98526.22;8290574;28;20042;-57
2023/10/29 15:31:38;;;;;;;1.58;0.50;;;;;;;18.22;73.40;98526.66;8288232;28;20544;-57
2023/10/29 15:35:39;;;;;;;2.63;0.55;;;;;;;18.22;74.10;98534.88;8289016;28;20046;-58
2023/10/29 15:39:40;;;;;;;0.93;0.35;;;;;;;18.28;73.80;98511.19;8289388;28;20086;-58
2023/10/29 15:43:40;;;;;;;0.47;0.35;;;;;;;18.25;73.68;98515.25;8276074;28;20144;-59
2023/10/29 15:47:41;;;;;;;0.90;0.30;;;;;;;18.20;73.49;98512.38;8295489;28;20042;-57
2023/10/29 15:51:42;;;;;;;0.80;0.22;;;;;;;18.15;73.09;98523.22;8295499;28;20042;-58
2023/10/29 15:55:42;;;;;;;0.50;0.30;;;;;;;17.93;74.81;98538.53;8296618;28;20181;-57
2023/10/29 15:59:43;;;;;;;4.25;0.63;;;;;;;17.85;74.10;98548.97;8291671;28;20121;-58
2023/10/29 16:03:45;;;;;;;1.00;0.30;;;;;;;17.77;73.89;98552.88;8294180;28;20042;-61
2023/10/29 16:07:45;;;;;;;4.68;0.20;;;;;;;17.68;74.16;98543.34;8287173;28;20130;-60
2023/10/29 16:11:47;;;;;;;1.08;0.17;;;;;;;17.57;73.73;98541.44;8271054;28;20046;-59
2023/10/29 16:15:47;;;;;;;1.40;0.25;;;;;;;17.45;74.10;98532.38;8288949;28;20042;-60
2023/10/29 16:19:48;;;;;;;2.75;0.60;;;;;;;17.42;73.97;98535.53;8287046;28;20345;-61
2023/10/29 16:23:48;;;;;;;1.95;0.68;;;;;;;17.36;74.43;98533.72;8293792;28;20597;-60
2023/10/29 16:27:49;;;;;;;3.00;0.70;;;;;;;17.22;75.39;98543.16;8298896;28;20052;-61
2023/10/29 16:31:49;;;;;;;2.00;0.55;;;;;;;17.21;74.69;98552.44;8284111;28;20228;-61
2023/10/29 16:35:51;;;;;;;1.42;0.52;;;;;;;17.23;74.56;98567.50;8276640;28;20043;-60
2023/10/29 16:39:52;;;;;;;1.08;0.35;;;;;;;17.16;75.13;98557.72;8301205;28;20045;-60
2023/10/29 16:43:53;;;;;;;3.85;0.57;;;;;;;17.01;75.98;98573.69;8286342;28;20111;-61
2023/10/29 16:47:53;;;;;;;2.53;0.32;;;;;;;16.96;76.26;98593.47;8297775;28;20038;-60
2023/10/29 16:51:57;;;;;;;0.82;0.25;;;;;;;17.04;75.38;98584.13;8298801;28;20049;-61
2023/10/29 16:56:08;;;;;;;6.28;0.95;;;;;;;16.93;75.87;98571.28;8282225;28;20531;-58
2023/10/29 17:00:10;;;;;;;2.65;0.70;;;;;;;16.80;76.64;98588.63;8290288;28;20074;-59
2023/10/29 17:04:10;;;;;;;2.78;0.45;;;;;;;16.73;76.97;98598.78;8302526;28;20112;-58
2023/10/29 17:08:12;;;;;;;2.50;0.70;;;;;;;16.75;77.18;98604.03;8296479;28;20041;-59
2023/10/29 17:12:13;;;;;;;1.65;0.30;;;;;;;16.67;77.92;98616.06;8292732;28;20045;-59
2023/10/29 17:16:13;;;;;;;2.58;0.30;;;;;;;16.63;78.57;98620.31;8291433;28;20102;-57
2023/10/29 17:20:14;;;;;;;1.30;0.50;;;;;;;16.62;78.75;98628.72;8300774;28;20100;-57
2023/10/29 17:24:14;;;;;;;0.85;0.20;;;;;;;16.48;79.72;98643.53;8317985;28;20041;-59
2023/10/29 17:28:15;;;;;;;2.20;0.50;;;;;;;16.49;80.13;98650.66;8293570;28;20038;-60
2023/10/29 17:32:17;;;;;;;0.98;0.40;;;;;;;16.52;80.19;98642.03;8291251;28;20339;-61
2023/10/29 17:36:17;;;;;;;2.03;0.30;;;;;;;16.49;80.00;98661.56;8295198;28;20049;-59
2023/10/29 17:40:18;;;;;;;2.05;0.43;;;;;;;16.40;80.77;98662.88;8289338;28;20045;-60
2023/10/29 17:44:18;;;;;;;0.35;0.10;;;;;;;16.33;81.14;98673.00;8298189;28;20037;-60
2023/10/29 17:48:20;;;;;;;0.85;0.20;;;;;;;16.37;81.06;98674.22;8297066;28;20041;-60
2023/10/29 17:52:20;;;;;;;1.95;0.32;;;;;;;16.38;80.83;98686.81;8298916;28;20095;-60
2023/10/29 17:56:21;;;;;;;1.88;0.20;;;;;;;16.44;80.12;98685.97;8281533;28;20053;-60
2023/10/29 18:00:21;;;;;;;2.72;0.35;;;;;;;16.42;80.38;98693.50;8287404;28;20062;-60
2023/10/29 18:04:22;;;;;;;2.22;0.40;;;;;;;16.43;79.92;98686.97;8299288;28;20087;-60
2023/10/29 18:08:22;;;;;;;3.92;0.30;;;;;;;16.34;80.56;98696.47;8289260;28;20407;-60
2023/10/29 18:12:23;;;;;;;4.30;0.40;;;;;;;16.30;80.79;98695.25;8296255;28;20431;-61
2023/10/29 18:16:24;;;;;;;1.75;0.30;;;;;;;16.28;81.28;98708.31;8299811;28;20048;-60
2023/10/29 18:20:25;;;;;;;4.80;0.45;;;;;;;16.27;80.87;98707.47;8289742;28;20665;-60
2023/10/29 18:24:26;;;;;;;5.20;0.40;;;;;;;16.29;80.98;98723.59;8279834;28;20042;-59
2023/10/29 18:28:27;;;;;;;2.33;0.40;;;;;;;16.30;80.52;98717.09;8284713;28;20544;-59
2023/10/29 18:32:27;;;;;;;2.75;0.50;;;;;;;16.37;79.98;98721.44;8315941;28;20049;-58
2023/10/29 18:36:28;;;;;;;2.65;0.60;;;;;;;16.43;79.53;98733.34;8278852;28;20050;-59
2023/10/29 18:40:30;;;;;;;1.63;0.50;;;;;;;16.50;78.24;98731.44;8285224;28;20108;-59
2023/10/29 18:44:31;;;;;;;6.07;0.75;;;;;;;16.55;77.48;98737.06;8290693;28;20045;-58
2023/10/29 18:48:31;;;;;;;4.22;0.40;;;;;;;16.63;77.20;98739.53;8284223;28;20092;-58
2023/10/29 18:52:32;;;;;;;2.38;0.50;;;;;;;16.68;76.23;98748.69;8289188;28;20054;-58
2023/10/29 18:56:32;;;;;;;3.33;0.80;;;;;;;16.59;76.63;98743.75;8287288;28;20065;-58
2023/10/29 19:00:33;;;;;;;4.05;0.93;;;;;;;16.55;76.20;98757.00;8277234;28;20581;-59
2023/10/29 19:04:35;;;;;;;5.07;0.68;;;;;;;16.64;75.13;98760.28;8286353;28;20081;-58
2023/10/29 19:08:36;;;;;;;5.40;0.75;;;;;;;16.63;74.86;98761.34;8289065;28;20080;-59
2023/10/29 19:12:37;;;;;;;6.53;0.80;;;;;;;16.59;75.30;98774.59;8291780;28;20132;-58